This is the latest recevied weather packets stored in our database for station/object VK4SSH. If no packets are shown the sender has not sent any weather packets the latest 10 day(s).
| Time | Temp. | Humidity | Pressure | Rain* | Wind** | Luminosity | Snow |
|---|---|---|---|---|---|---|---|
| 1777433125 | 24.44° C | 69% | - | 0 mm | - | - | - |
| 1777432526 | 25° C | 65% | - | 0 mm | - | - | - |
| 1777431925 | 25° C | 63% | - | 0 mm | - | - | - |
| 1777431325 | 24.44° C | 65% | - | 0 mm | - | - | - |
| 1777430725 | 24.44° C | 63% | - | 0 mm | - | - | - |
| 1777430126 | 25° C | 64% | - | 0 mm | - | - | - |
| 1777429525 | 25° C | 63% | - | 0 mm | - | - | - |
| 1777428925 | 25° C | 64% | - | 0 mm | - | - | - |
| 1777428325 | 25° C | 64% | - | 0 mm | - | - | - |
| 1777427725 | 25° C | 64% | - | 0 mm | - | - | - |
| 1777427125 | 25° C | 62% | - | 0 mm | - | - | - |
| 1777426525 | 25° C | 65% | - | 0 mm | - | - | - |
| 1777425925 | 24.44° C | 66% | - | 0 mm | - | - | - |
| 1777425325 | 23.89° C | 68% | - | 0 mm | - | - | - |
| 1777424725 | 24.44° C | 69% | - | 0 mm | - | - | - |
| 1777424125 | 24.44° C | 67% | - | 0 mm | - | - | - |
| 1777423525 | 24.44° C | 68% | - | 0 mm | - | - | - |
| 1777422925 | 24.44° C | 68% | - | 0 mm | - | - | - |
| 1777422325 | 24.44° C | 69% | - | 0 mm | - | - | - |
| 1777421725 | 23.89° C | 71% | - | 0 mm | - | - | - |
| 1777421125 | 23.33° C | 72% | - | 0 mm | - | - | - |
| 1777420525 | 23.33° C | 72% | - | 0 mm | - | - | - |
| 1777419925 | 23.33° C | 72% | - | 0 mm | - | - | - |
| 1777419325 | 22.22° C | 74% | - | 0 mm | - | - | - |
| 1777418725 | 21.67° C | 78% | - | 0 mm | - | - | - |
* Rain latest hour (hover to see other rain measurements)
** Current wind speed in m/s (hover to see current wind gust speed)